createdAt,value
2019-01-05T00:01:18.671Z,6.42
2019-01-05T00:03:51.475Z,6.45
2019-01-05T00:06:21.534Z,6.42
2019-01-05T00:08:57.681Z,6.45
2019-01-05T00:11:27.744Z,6.47
2019-01-05T00:14:03.528Z,6.43
2019-01-05T00:16:36.670Z,6.42
2019-01-05T00:19:12.882Z,6.44
2019-01-05T00:21:57.141Z,6.44
2019-01-05T00:24:43.491Z,6.45
2019-01-05T00:27:20.597Z,6.45
2019-01-05T00:30:02.716Z,6.45
2019-01-05T00:32:41.711Z,6.44
2019-01-05T00:35:34.278Z,6.38
2019-01-05T00:38:22.386Z,6.40
2019-01-05T00:40:58.375Z,6.40
2019-01-05T00:43:43.620Z,6.47
2019-01-05T00:46:23.352Z,6.50
2019-01-05T00:49:02.952Z,6.50
2019-01-05T00:51:52.539Z,6.56
2019-01-05T00:54:38.880Z,6.63
2019-01-05T00:57:09.329Z,6.63
2019-01-05T00:59:39.460Z,6.61
2019-01-05T01:02:25.798Z,6.65
2019-01-05T01:05:01.591Z,6.64
2019-01-05T01:07:31.737Z,6.73
2019-01-05T01:10:13.618Z,6.73
2019-01-05T01:12:59.721Z,6.81
2019-01-05T01:15:46.161Z,6.85
2019-01-05T01:18:19.123Z,6.75
2019-01-05T01:20:49.257Z,6.75
2019-01-05T01:23:38.017Z,6.82
2019-01-05T01:26:24.632Z,6.84
2019-01-05T01:29:12.933Z,6.93
2019-01-05T01:31:59.146Z,6.93
2019-01-05T01:34:29.274Z,6.89
2019-01-05T01:37:02.613Z,6.88
2019-01-05T01:39:41.680Z,6.87
2019-01-05T01:42:15.466Z,6.79
2019-01-05T01:44:45.900Z,6.78
2019-01-05T01:47:27.937Z,6.73
2019-01-05T01:49:58.169Z,6.73
2019-01-05T01:52:29.535Z,6.78
2019-01-05T01:54:59.668Z,6.75
2019-01-05T01:57:29.826Z,6.73
2019-01-05T02:00:05.914Z,6.77
2019-01-05T02:02:36.352Z,6.75
2019-01-05T02:05:06.689Z,6.74
2019-01-05T02:07:38.284Z,6.73
2019-01-05T02:10:25.052Z,6.79
2019-01-05T02:13:13.350Z,6.76
2019-01-05T02:15:43.781Z,6.80
2019-01-05T02:18:19.800Z,6.78
2019-01-05T02:20:58.528Z,6.76
2019-01-05T02:23:58.719Z,6.77
2019-01-05T02:26:40.663Z,6.79
2019-01-05T02:29:51.659Z,6.73
2019-01-05T02:32:51.601Z,6.74
2019-01-05T02:35:48.992Z,6.74
2019-01-05T02:38:37.254Z,6.74
2019-01-05T02:41:28.458Z,6.74
2019-01-05T02:44:04.612Z,6.72
2019-01-05T02:47:01.558Z,6.74
2019-01-05T02:50:13.918Z,6.74
2019-01-05T02:52:55.927Z,6.74
2019-01-05T02:55:48.796Z,6.71
2019-01-05T02:58:53.212Z,6.71
2019-01-05T03:02:07.180Z,6.74
2019-01-05T03:04:59.368Z,6.74
2019-01-05T03:08:11.229Z,6.71
2019-01-05T03:11:05.508Z,6.73
2019-01-05T03:13:59.600Z,6.69
2019-01-05T03:16:41.632Z,6.73
2019-01-05T03:19:37.296Z,6.69
2019-01-05T03:22:45.353Z,6.71
2019-01-05T03:25:27.540Z,6.73
2019-01-05T03:28:23.209Z,6.67
2019-01-05T03:31:23.701Z,6.70
2019-01-05T03:34:14.352Z,6.69
2019-01-05T03:36:53.544Z,6.69
2019-01-05T03:39:43.128Z,6.72
2019-01-05T03:42:48.026Z,6.71
2019-01-05T03:46:04.756Z,6.72
2019-01-05T03:48:52.761Z,6.70
2019-01-05T03:51:37.782Z,6.67
2019-01-05T03:54:37.971Z,6.70
2019-01-05T03:57:14.169Z,6.76
2019-01-05T04:00:08.528Z,6.76
2019-01-05T04:02:59.397Z,6.71
2019-01-05T04:06:13.379Z,6.72
2019-01-05T04:09:02.874Z,6.75
2019-01-05T04:12:10.872Z,6.74
2019-01-05T04:15:20.104Z,6.72
2019-01-05T04:18:29.293Z,6.76
2019-01-05T04:21:30.872Z,6.76
2019-01-05T04:24:21.915Z,6.71
2019-01-05T04:27:34.352Z,6.71
2019-01-05T04:30:32.788Z,6.81
2019-01-05T04:33:28.633Z,6.79
2019-01-05T04:36:21.138Z,6.79
2019-01-05T04:39:12.072Z,6.70
2019-01-05T04:42:00.299Z,6.78
2019-01-05T04:45:22.418Z,6.83
2019-01-05T04:48:12.229Z,6.84
2019-01-05T04:50:50.730Z,6.78
2019-01-05T04:54:02.030Z,6.77
2019-01-05T04:56:59.013Z,6.77
2019-01-05T05:00:21.888Z,6.75
2019-01-05T05:03:31.121Z,6.80
2019-01-05T05:06:15.947Z,6.82
2019-01-05T05:09:11.474Z,6.76
2019-01-05T05:12:08.590Z,6.79
2019-01-05T05:15:05.511Z,6.78
2019-01-05T05:18:11.974Z,6.79
2019-01-05T05:21:09.324Z,6.81
2019-01-05T05:23:54.372Z,6.79
2019-01-05T05:26:39.528Z,6.80
2019-01-05T05:29:32.209Z,6.75
2019-01-05T05:32:42.730Z,6.75
2019-01-05T05:35:38.112Z,6.69
2019-01-05T05:38:49.117Z,6.69
2019-01-05T05:41:46.134Z,6.80
2019-01-05T05:44:57.165Z,6.77
2019-01-05T05:47:59.189Z,6.77
2019-01-05T05:51:02.658Z,6.78
2019-01-05T05:54:01.351Z,6.82
2019-01-05T05:57:01.979Z,6.74
2019-01-05T06:00:19.840Z,6.80
2019-01-05T06:03:02.017Z,6.79
2019-01-05T06:06:02.380Z,6.79
2019-01-05T06:09:04.307Z,6.81
2019-01-05T06:11:55.579Z,6.82
2019-01-05T06:14:56.919Z,6.80
2019-01-05T06:17:51.271Z,6.77
2019-01-05T06:21:11.858Z,6.84
2019-01-05T06:24:09.003Z,6.84
2019-01-05T06:27:04.244Z,6.85
2019-01-05T06:29:58.295Z,6.83
2019-01-05T06:33:03.311Z,6.84
2019-01-05T06:36:02.296Z,6.81
2019-01-05T06:39:27.388Z,6.83
2019-01-05T06:42:34.367Z,6.82
2019-01-05T06:45:36.056Z,6.78
2019-01-05T06:49:00.619Z,6.81
2019-01-05T06:52:11.899Z,6.83
2019-01-05T06:55:19.907Z,6.82
2019-01-05T06:58:05.131Z,6.80
2019-01-05T07:00:41.266Z,6.84
2019-01-05T07:04:00.912Z,6.87
2019-01-05T07:07:01.027Z,6.88
2019-01-05T07:10:16.314Z,6.89
2019-01-05T07:13:03.986Z,6.90
2019-01-05T07:16:11.620Z,6.93
2019-01-05T07:18:53.410Z,6.94
2019-01-05T07:22:06.112Z,6.93
2019-01-05T07:25:01.613Z,6.93
2019-01-05T07:28:25.043Z,6.92
2019-01-05T07:31:38.047Z,6.94
2019-01-05T07:34:36.799Z,6.94
2019-01-05T07:37:29.122Z,6.95
2019-01-05T07:40:05.199Z,6.90
2019-01-05T07:43:14.849Z,6.90
2019-01-05T07:45:53.759Z,6.96
2019-01-05T07:48:52.758Z,6.96
2019-01-05T07:52:17.907Z,6.97
2019-01-05T07:55:31.603Z,6.95
2019-01-05T07:58:16.484Z,6.91
2019-01-05T08:01:26.087Z,6.94
2019-01-05T08:04:31.315Z,6.94
2019-01-05T08:07:19.405Z,6.94
2019-01-05T08:10:39.207Z,6.97
2019-01-05T08:13:53.442Z,7.02
2019-01-05T08:16:58.327Z,7.01
2019-01-05T08:20:09.267Z,7.01
2019-01-05T08:23:23.329Z,6.99
2019-01-05T08:25:59.304Z,6.99
2019-01-05T08:29:01.462Z,7.01
2019-01-05T08:32:00.315Z,7.02
2019-01-05T08:35:04.830Z,7.05
2019-01-05T08:38:20.155Z,7.04
2019-01-05T08:41:26.459Z,7.05
2019-01-05T08:44:36.746Z,7.05
2019-01-05T08:47:32.078Z,7.03
2019-01-05T08:50:38.134Z,7.04
2019-01-05T08:53:46.106Z,7.06
2019-01-05T08:56:46.512Z,7.11
2019-01-05T08:59:54.191Z,7.18
2019-01-05T09:03:04.924Z,7.22
2019-01-05T09:05:53.354Z,7.33
2019-01-05T09:08:41.420Z,7.38
2019-01-05T09:11:34.148Z,7.45
2019-01-05T09:14:28.399Z,7.58
2019-01-05T09:17:29.010Z,7.67
2019-01-05T09:20:16.810Z,7.73
2019-01-05T09:23:06.918Z,7.70
2019-01-05T09:26:01.902Z,7.63
2019-01-05T09:29:06.661Z,7.63
2019-01-05T09:31:57.332Z,7.73
2019-01-05T09:34:54.476Z,7.84
2019-01-05T09:38:00.647Z,7.89
2019-01-05T09:40:45.825Z,7.89
2019-01-05T09:43:49.112Z,7.87
2019-01-05T09:46:50.442Z,7.87
2019-01-05T09:50:16.387Z,7.83
2019-01-05T09:53:12.241Z,7.82
2019-01-05T09:56:20.425Z,7.81
2019-01-05T09:58:53.685Z,7.82
2019-01-05T10:02:05.904Z,7.77
2019-01-05T10:05:12.313Z,7.76
2019-01-05T10:08:07.927Z,7.83
2019-01-05T10:11:00.021Z,7.91
2019-01-05T10:13:54.470Z,7.92
2019-01-05T10:16:59.821Z,7.94
2019-01-05T10:19:55.130Z,7.93
2019-01-05T10:22:44.732Z,7.98
2019-01-05T10:25:52.456Z,8.02
2019-01-05T10:28:51.033Z,8.01
2019-01-05T10:31:39.334Z,8.07
2019-01-05T10:35:03.356Z,8.09
2019-01-05T10:38:00.385Z,8.01
2019-01-05T10:41:05.062Z,8.08
2019-01-05T10:44:11.552Z,8.17
2019-01-05T10:47:05.851Z,8.21
2019-01-05T10:50:00.241Z,8.25
2019-01-05T10:52:47.879Z,8.28
2019-01-05T10:56:10.870Z,8.36
2019-01-05T10:59:06.543Z,8.48
2019-01-05T11:02:24.348Z,8.38
2019-01-05T11:05:25.097Z,8.34
2019-01-05T11:08:03.631Z,8.29
2019-01-05T11:11:09.918Z,8.24
2019-01-05T11:14:33.319Z,8.20
2019-01-05T11:17:18.613Z,8.19
2019-01-05T11:20:24.882Z,8.14
2019-01-05T11:23:16.181Z,8.17
2019-01-05T11:26:06.100Z,8.15
2019-01-05T11:28:51.104Z,8.12
2019-01-05T11:31:58.637Z,8.08
2019-01-05T11:34:46.549Z,8.04
2019-01-05T11:38:05.294Z,8.04
2019-01-05T11:40:55.153Z,8.12
2019-01-05T11:43:49.113Z,8.20
2019-01-05T11:46:36.996Z,8.23
2019-01-05T11:49:47.647Z,8.26
2019-01-05T11:52:43.367Z,8.32
2019-01-05T11:55:46.673Z,8.21
2019-01-05T11:58:57.791Z,8.18
2019-01-05T12:01:39.837Z,8.19
2019-01-05T12:04:38.735Z,8.19
2019-01-05T12:07:30.045Z,8.14
2019-01-05T12:10:26.830Z,8.15
2019-01-05T12:13:31.669Z,8.20
2019-01-05T12:16:33.278Z,8.27
2019-01-05T12:19:42.451Z,8.27
2019-01-05T12:22:47.240Z,8.25
2019-01-05T12:25:45.965Z,8.22
2019-01-05T12:28:47.997Z,8.15
2019-01-05T12:31:36.376Z,8.07
2019-01-05T12:34:42.928Z,8.07
2019-01-05T12:37:47.219Z,8.05
2019-01-05T12:41:05.178Z,8.03
2019-01-05T12:44:11.550Z,7.96
2019-01-05T12:46:59.417Z,7.90
2019-01-05T12:49:47.484Z,7.83
2019-01-05T12:52:52.169Z,7.85
2019-01-05T12:56:10.591Z,7.95
2019-01-05T12:59:36.434Z,8.03
2019-01-05T13:02:35.024Z,8.17
2019-01-05T13:05:32.092Z,8.29
2019-01-05T13:08:24.351Z,8.37
2019-01-05T13:11:25.746Z,8.43
2019-01-05T13:14:43.066Z,8.39
2019-01-05T13:17:27.981Z,8.40
2019-01-05T13:20:29.776Z,8.39
2019-01-05T13:23:31.791Z,8.36
2019-01-05T13:26:43.591Z,8.38
2019-01-05T13:29:38.762Z,8.38
2019-01-05T13:32:33.201Z,8.33
2019-01-05T13:35:45.710Z,8.31
2019-01-05T13:38:50.496Z,8.29
2019-01-05T13:41:57.051Z,8.18
2019-01-05T13:44:52.549Z,8.11
2019-01-05T13:47:30.939Z,7.97
2019-01-05T13:50:37.259Z,7.87
2019-01-05T13:53:33.044Z,7.83
2019-01-05T13:56:11.371Z,7.76
2019-01-05T13:58:53.405Z,7.71
2019-01-05T14:01:38.332Z,7.65
2019-01-05T14:04:24.340Z,7.62
2019-01-05T14:07:03.098Z,7.58
2019-01-05T14:09:42.429Z,7.50
2019-01-05T14:12:28.989Z,7.46
2019-01-05T14:15:15.151Z,7.37
2019-01-05T14:17:45.220Z,7.33
2019-01-05T14:20:23.970Z,7.28
2019-01-05T14:22:54.024Z,7.24
2019-01-05T14:25:39.892Z,7.15
2019-01-05T14:28:09.957Z,7.09
2019-01-05T14:30:56.282Z,7.08
2019-01-05T14:33:42.794Z,7.07
2019-01-05T14:36:12.849Z,7.00
2019-01-05T14:38:48.994Z,6.89
2019-01-05T14:41:34.502Z,6.76
2019-01-05T14:44:07.261Z,6.67
2019-01-05T14:46:53.104Z,6.62
2019-01-05T14:49:23.189Z,6.59
2019-01-05T14:51:56.286Z,6.55
2019-01-05T14:54:35.401Z,6.52
2019-01-05T14:57:05.516Z,6.48
2019-01-05T14:59:38.168Z,6.43
2019-01-05T15:02:24.192Z,6.35
2019-01-05T15:04:56.991Z,6.35
2019-01-05T15:07:29.732Z,6.42
2019-01-05T15:10:14.620Z,6.49
2019-01-05T15:12:44.691Z,6.55
2019-01-05T15:15:17.516Z,6.59
2019-01-05T15:17:53.280Z,6.57
2019-01-05T15:20:39.451Z,6.53
2019-01-05T15:23:12.236Z,6.57
2019-01-05T15:25:42.314Z,6.58
2019-01-05T15:28:21.398Z,6.56
2019-01-05T15:30:51.477Z,6.51
2019-01-05T15:33:36.577Z,6.49
2019-01-05T15:36:09.344Z,6.49
2019-01-05T15:38:55.955Z,6.50
2019-01-05T15:41:41.922Z,6.48
2019-01-05T15:44:20.743Z,6.48
2019-01-05T15:46:59.785Z,6.47
2019-01-05T15:49:35.636Z,6.44
2019-01-05T15:52:17.532Z,6.42
2019-01-05T15:54:47.599Z,6.43
2019-01-05T15:57:29.483Z,6.43
2019-01-05T16:00:02.426Z,6.40
2019-01-05T16:02:32.508Z,6.40
2019-01-05T16:05:20.697Z,6.36
2019-01-05T16:08:06.032Z,6.36
2019-01-05T16:10:52.223Z,6.34
2019-01-05T16:13:39.759Z,6.35
2019-01-05T16:16:12.405Z,6.34
2019-01-05T16:18:45.050Z,6.36
2019-01-05T16:21:30.399Z,6.28
2019-01-05T16:24:03.236Z,6.32
2019-01-05T16:26:39.607Z,6.32
2019-01-05T16:29:12.388Z,6.30
2019-01-05T16:31:58.881Z,6.30
2019-01-05T16:34:34.377Z,6.30
2019-01-05T16:37:07.269Z,6.30
2019-01-05T16:39:45.806Z,6.25
2019-01-05T16:42:32.333Z,6.21
2019-01-05T16:45:18.502Z,6.21
2019-01-05T16:47:57.606Z,6.21
2019-01-05T16:50:30.077Z,6.17
2019-01-05T16:53:05.919Z,6.16
2019-01-05T16:55:54.141Z,6.09
2019-01-05T16:58:40.250Z,6.09
2019-01-05T17:01:26.935Z,6.08
2019-01-05T17:04:05.723Z,6.03
2019-01-05T17:06:44.525Z,5.96
2019-01-05T17:09:26.846Z,5.93
2019-01-05T17:12:13.325Z,5.93
2019-01-05T17:14:43.410Z,5.81
2019-01-05T17:17:16.163Z,5.81
2019-01-05T17:20:04.291Z,5.70
2019-01-05T17:22:52.470Z,5.64
2019-01-05T17:25:22.544Z,5.61
2019-01-05T17:28:01.459Z,5.61
2019-01-05T17:30:40.489Z,5.60
2019-01-05T17:33:12.946Z,5.55
2019-01-05T17:35:45.485Z,5.56
2019-01-05T17:38:15.526Z,5.59
2019-01-05T17:40:48.661Z,5.58
2019-01-05T17:43:27.472Z,5.47
2019-01-05T17:46:03.560Z,5.47
2019-01-05T17:48:49.975Z,5.49
2019-01-05T17:51:36.117Z,5.48
2019-01-05T17:54:17.722Z,5.49
2019-01-05T17:56:56.703Z,5.53
2019-01-05T17:59:26.790Z,5.53
2019-01-05T18:02:05.719Z,5.53
2019-01-05T18:04:38.358Z,5.53
2019-01-05T18:07:14.149Z,5.50
2019-01-05T18:09:56.077Z,5.52
2019-01-05T18:12:41.096Z,5.50
2019-01-05T18:15:13.772Z,5.43
2019-01-05T18:17:43.833Z,5.46
2019-01-05T18:20:16.330Z,5.47
2019-01-05T18:22:46.374Z,5.46
2019-01-05T18:25:16.464Z,5.46
2019-01-05T18:27:55.110Z,5.35
2019-01-05T18:30:43.564Z,5.35
2019-01-05T18:33:13.660Z,5.26
2019-01-05T18:35:46.286Z,5.27
2019-01-05T18:38:22.288Z,5.20
2019-01-05T18:41:10.513Z,5.13
2019-01-05T18:43:52.922Z,5.15
2019-01-05T18:46:25.632Z,5.15
2019-01-05T18:49:12.216Z,5.13
2019-01-05T18:51:58.254Z,5.10
2019-01-05T18:54:44.426Z,5.10
2019-01-05T18:57:26.805Z,4.98
2019-01-05T19:00:12.836Z,4.98
2019-01-05T19:02:54.961Z,4.91
2019-01-05T19:05:43.093Z,4.91
2019-01-05T19:08:18.948Z,4.81
2019-01-05T19:11:05.125Z,4.81
2019-01-05T19:13:41.199Z,4.80
2019-01-05T19:16:13.997Z,4.80
2019-01-05T19:18:47.032Z,4.77
2019-01-05T19:21:19.729Z,4.77
2019-01-05T19:24:05.072Z,4.75
2019-01-05T19:26:37.562Z,4.76
2019-01-05T19:29:22.938Z,4.76
2019-01-05T19:31:53.011Z,4.77
2019-01-05T19:34:23.095Z,4.77
2019-01-05T19:37:02.363Z,4.76
2019-01-05T19:39:32.437Z,4.75
2019-01-05T19:42:17.598Z,4.73
2019-01-05T19:45:04.033Z,4.72
2019-01-05T19:47:36.984Z,4.69
2019-01-05T19:50:19.467Z,4.68
2019-01-05T19:53:06.043Z,4.62
2019-01-05T19:55:50.851Z,4.56
2019-01-05T19:58:37.388Z,4.63
2019-01-05T20:01:10.410Z,4.60
2019-01-05T20:03:56.916Z,4.54
2019-01-05T20:06:43.406Z,4.55
2019-01-05T20:09:13.492Z,4.54
2019-01-05T20:11:59.396Z,4.53
2019-01-05T20:14:31.956Z,4.54
2019-01-05T20:17:04.866Z,4.54
2019-01-05T20:19:35.126Z,4.54
2019-01-05T20:22:11.005Z,4.53
2019-01-05T20:24:43.819Z,4.55
2019-01-05T20:27:29.794Z,4.55
2019-01-05T20:30:05.653Z,4.56
2019-01-05T20:32:38.476Z,4.54
2019-01-05T20:35:11.065Z,4.54
2019-01-05T20:37:53.073Z,4.49
2019-01-05T20:40:32.072Z,4.56
2019-01-05T20:43:08.040Z,4.53
2019-01-05T20:45:38.117Z,4.53
2019-01-05T20:48:16.894Z,4.52
2019-01-05T20:51:04.939Z,4.51
2019-01-05T20:53:51.120Z,4.46
2019-01-05T20:56:39.684Z,4.45
2019-01-05T20:59:26.035Z,4.45
2019-01-05T21:01:58.778Z,4.35
2019-01-05T21:04:28.844Z,4.38
2019-01-05T21:07:13.962Z,4.38
2019-01-05T21:09:44.022Z,4.38
2019-01-05T21:12:26.206Z,4.30
2019-01-05T21:14:59.192Z,4.32
2019-01-05T21:17:41.030Z,4.30
2019-01-05T21:20:27.134Z,4.30
2019-01-05T21:22:57.220Z,4.29
2019-01-05T21:25:33.211Z,4.28
2019-01-05T21:28:19.511Z,4.22
2019-01-05T21:30:49.572Z,4.22
2019-01-05T21:33:25.991Z,4.13
2019-01-05T21:36:02.920Z,4.13
2019-01-05T21:38:47.821Z,4.09
2019-01-05T21:41:33.012Z,4.08
2019-01-05T21:44:19.415Z,4.08
2019-01-05T21:47:05.890Z,4.04
2019-01-05T21:49:38.862Z,3.94
2019-01-05T21:52:25.077Z,3.87
2019-01-05T21:55:04.071Z,3.63
2019-01-05T21:57:34.153Z,3.63
2019-01-05T22:00:04.482Z,3.64
2019-01-05T22:02:40.578Z,3.63
2019-01-05T22:05:16.646Z,3.63
2019-01-05T22:07:52.431Z,3.65
2019-01-05T22:10:22.497Z,3.58
2019-01-05T22:12:52.655Z,3.56
2019-01-05T22:15:40.839Z,3.34
2019-01-05T22:18:10.924Z,3.22
2019-01-05T22:20:40.983Z,3.22
2019-01-05T22:23:16.561Z,3.01
2019-01-05T22:26:02.571Z,3.01
2019-01-05T22:28:35.152Z,2.73
2019-01-05T22:31:21.432Z,2.73
2019-01-05T22:33:56.955Z,2.57
2019-01-05T22:36:41.982Z,2.35
2019-01-05T22:39:30.264Z,2.13
2019-01-05T22:42:05.941Z,1.97
2019-01-05T22:44:51.379Z,1.81
2019-01-05T22:47:21.437Z,1.68
2019-01-05T22:49:57.811Z,1.53
2019-01-05T22:52:36.648Z,1.41
2019-01-05T22:55:23.059Z,1.32
2019-01-05T22:58:05.460Z,1.31
2019-01-05T23:00:51.940Z,1.36
2019-01-05T23:03:22.025Z,1.41
2019-01-05T23:06:01.108Z,1.38
2019-01-05T23:08:33.948Z,1.32
2019-01-05T23:11:18.974Z,1.31
2019-01-05T23:13:58.084Z,1.32
2019-01-05T23:16:28.141Z,1.28
2019-01-05T23:18:58.233Z,1.12
2019-01-05T23:21:40.212Z,1.01
2019-01-05T23:24:16.160Z,1.04
2019-01-05T23:27:02.156Z,1.11
2019-01-05T23:29:35.012Z,1.14
2019-01-05T23:32:05.111Z,1.12
2019-01-05T23:34:44.149Z,0.96
2019-01-05T23:37:29.093Z,0.83
2019-01-05T23:40:08.020Z,0.74
2019-01-05T23:42:56.427Z,0.72
2019-01-05T23:45:42.606Z,0.75
2019-01-05T23:48:29.143Z,0.73
2019-01-05T23:51:08.125Z,0.55
2019-01-05T23:53:56.339Z,0.42
2019-01-05T23:56:32.111Z,0.39
2019-01-05T23:59:02.171Z,0.29
